Time;durP1;ratioP1;P1;durP2;ratioP2;P2;SDS_P1;SDS_P2;PMS_P1;PMS_P2;Temp;Humidity;BMP_temperature;BMP_pressure;BME280_temperature;BME280_humidity;BME280_pressure;Samples;Min_cycle;Max_cycle;Signal;HPM_P1;HPM_P2
2023/03/07 00:02:11;;;;;;;;;19.75;19.75;;;;;7.09;56.17;100282.50;4961548;28;45351;-72
2023/03/07 00:04:36;;;;;;;;;20.75;19.25;;;;;7.10;55.68;100286.88;4959490;28;45638;-72
2023/03/07 00:07:01;;;;;;;;;23.75;18.00;;;;;7.03;56.47;100269.19;4960874;28;46291;-70
2023/03/07 00:09:27;;;;;;;;;24.75;19.25;;;;;7.01;56.43;100268.22;4960570;28;45421;-72
2023/03/07 00:11:52;;;;;;;;;27.25;24.25;;;;;7.00;56.12;100265.53;4961593;28;45624;-72
2023/03/07 00:14:18;;;;;;;;;24.75;20.25;;;;;6.96;56.13;100261.94;4958902;28;45424;-72
2023/03/07 00:16:43;;;;;;;;;29.00;23.75;;;;;6.99;56.19;100269.91;4957172;28;46332;-72
2023/03/07 00:19:09;;;;;;;;;21.50;19.50;;;;;7.01;55.80;100270.84;4959545;28;45447;-72
2023/03/07 00:21:34;;;;;;;;;30.75;25.50;;;;;6.87;56.17;100252.03;4960533;28;44709;-72
2023/03/07 00:23:59;;;;;;;;;25.50;22.00;;;;;6.97;55.76;100266.34;4960142;28;45495;-72
2023/03/07 00:26:26;;;;;;;;;16.75;14.75;;;;;6.86;57.01;100250.28;4961119;28;46292;-72
2023/03/07 00:28:53;;;;;;;;;25.00;22.50;;;;;6.92;56.02;100260.06;4959748;28;45364;-72
2023/03/07 00:31:20;;;;;;;;;26.50;23.00;;;;;6.95;56.40;100262.78;4943004;28;45370;-72
2023/03/07 00:33:45;;;;;;;;;34.75;28.25;;;;;6.91;55.98;100250.38;4959939;28;45296;-72
2023/03/07 00:36:14;;;;;;;;;19.50;18.50;;;;;6.91;56.64;100255.66;4960456;28;45215;-69
2023/03/07 00:38:41;;;;;;;;;27.25;23.00;;;;;6.92;56.47;100250.47;4940836;28;45493;-72
2023/03/07 00:41:11;;;;;;;;;25.50;22.25;;;;;6.90;56.16;100249.50;4960590;28;45493;-72
2023/03/07 00:43:37;;;;;;;;;31.75;20.50;;;;;6.92;56.13;100247.81;4956214;28;45420;-70
2023/03/07 00:46:03;;;;;;;;;26.25;21.00;;;;;6.90;56.47;100251.25;4959733;28;45322;-73
2023/03/07 00:48:32;;;;;;;;;23.50;19.75;;;;;6.84;56.63;100236.19;4957753;28;45276;-72
2023/03/07 00:50:58;;;;;;;;;19.00;18.00;;;;;6.90;56.16;100240.75;4939545;28;45209;-71
2023/03/07 00:53:24;;;;;;;;;27.25;23.75;;;;;6.89;56.52;100242.47;4959740;28;48445;-72
2023/03/07 00:55:53;;;;;;;;;24.25;22.50;;;;;6.84;56.03;100223.06;4959270;28;46139;-72
2023/03/07 00:58:18;;;;;;;;;24.50;22.00;;;;;6.86;56.68;100229.25;4959186;28;45358;-72
2023/03/07 01:00:43;;;;;;;;;19.25;19.25;;;;;6.84;55.72;100223.06;4960245;28;45309;-72
2023/03/07 01:03:09;;;;;;;;;25.50;23.00;;;;;6.87;56.60;100222.25;4959068;28;45437;-72
2023/03/07 01:05:38;;;;;;;;;30.00;28.25;;;;;6.73;57.17;100200.84;4959619;28;57302;-72
2023/03/07 01:08:03;;;;;;;;;23.25;20.75;;;;;6.87;56.76;100217.91;4960719;28;45257;-72
2023/03/07 01:10:31;;;;;;;;;20.50;20.50;;;;;6.82;56.27;100205.47;4960363;28;45387;-72
2023/03/07 01:12:56;;;;;;;;;24.75;18.50;;;;;6.81;56.53;100201.06;4943016;28;45930;-72
2023/03/07 01:15:22;;;;;;;;;29.25;21.50;;;;;6.78;56.64;100193.06;4959642;28;45285;-72
2023/03/07 01:17:47;;;;;;;;;31.50;25.50;;;;;6.88;56.81;100205.66;4942333;28;48815;-72
2023/03/07 01:20:12;;;;;;;;;22.75;20.75;;;;;6.88;56.65;100201.28;4958050;28;45461;-72
2023/03/07 01:22:38;;;;;;;;;23.50;19.50;;;;;6.81;56.06;100183.56;4958989;28;52445;-72
2023/03/07 01:25:03;;;;;;;;;19.25;19.25;;;;;6.84;56.39;100190.66;4959714;28;45521;-72
2023/03/07 01:27:28;;;;;;;;;22.25;16.00;;;;;6.64;56.54;100159.44;4959928;28;45346;-72
2023/03/07 01:29:54;;;;;;;;;22.50;20.25;;;;;6.83;56.87;100191.47;4959500;28;45452;-72
2023/03/07 01:32:19;;;;;;;;;26.50;24.25;;;;;6.81;56.87;100183.56;4959649;28;45458;-72
2023/03/07 01:34:44;;;;;;;;;22.25;19.00;;;;;6.76;56.58;100174.66;4959663;28;45434;-72
2023/03/07 01:37:10;;;;;;;;;28.00;24.25;;;;;6.78;57.29;100172.06;4959772;28;45463;-72
2023/03/07 01:39:35;;;;;;;;;18.75;14.50;;;;;6.78;56.39;100169.44;4958885;28;45632;-70
2023/03/07 01:42:00;;;;;;;;;28.00;20.00;;;;;6.80;56.73;100176.50;4957721;28;45356;-70
2023/03/07 01:44:26;;;;;;;;;15.50;14.25;;;;;6.71;56.47;100155.25;4958361;28;45140;-70
2023/03/07 01:46:52;;;;;;;;;27.75;23.75;;;;;6.79;57.00;100165.97;4958584;28;45287;-70
2023/03/07 01:49:25;;;;;;;;;26.25;24.00;;;;;6.76;56.72;100158.91;4942198;28;45306;-72
2023/03/07 01:52:15;;;;;;;;;26.25;21.00;;;;;6.65;57.38;100134.06;4957035;28;45683;-72
2023/03/07 01:54:47;;;;;;;;;24.00;21.00;;;;;6.71;57.21;100147.34;4957696;28;45319;-70
2023/03/07 01:57:15;;;;;;;;;26.25;16.00;;;;;6.78;56.85;100157.22;4941501;28;45346;-72
2023/03/07 01:59:45;;;;;;;;;19.50;16.25;;;;;6.76;57.16;100150.13;4956701;28;45294;-70
2023/03/07 02:02:15;;;;;;;;;23.25;20.00;;;;;6.78;57.20;100148.41;4959732;28;45281;-71
2023/03/07 02:05:04;;;;;;;;;22.00;17.75;;;;;6.78;57.25;100148.41;4958059;28;45312;-71
2023/03/07 02:07:40;;;;;;;;;26.75;22.50;;;;;6.77;56.90;100144.91;4953832;28;45569;-70
2023/03/07 02:10:07;;;;;;;;;32.50;19.25;;;;;6.66;57.16;100113.06;4949737;28;45351;-70
2023/03/07 02:12:33;;;;;;;;;25.00;19.75;;;;;6.66;56.74;100114.81;4939634;28;45249;-71
2023/03/07 02:14:59;;;;;;;;;25.25;20.00;;;;;6.73;56.66;100125.56;4956642;28;46248;-71
2023/03/07 02:17:26;;;;;;;;;12.50;12.50;;;;;6.72;56.51;100115.91;4956313;28;45264;-70
2023/03/07 02:20:20;;;;;;;;;25.75;21.00;;;;;6.75;57.03;100111.56;4949723;28;45512;-70
2023/03/07 02:22:48;;;;;;;;;23.75;19.75;;;;;6.75;56.95;100120.34;4951954;28;45227;-70
2023/03/07 02:25:25;;;;;;;;;22.50;20.25;;;;;6.72;57.49;100113.28;4951897;28;45658;-70
2023/03/07 02:27:55;;;;;;;;;19.00;19.00;;;;;6.69;57.43;100110.56;4958186;28;44825;-70
2023/03/07 02:30:20;;;;;;;;;28.75;20.25;;;;;6.65;57.25;100102.53;4956815;28;45372;-70
2023/03/07 02:32:46;;;;;;;;;20.50;19.25;;;;;6.58;56.97;100090.06;4958187;28;45197;-70
2023/03/07 02:35:14;;;;;;;;;26.50;22.75;;;;;6.38;58.13;100055.38;4957932;28;45267;-70
2023/03/07 02:37:44;;;;;;;;;25.00;23.75;;;;;6.59;57.61;100098.00;4958580;28;44781;-71
2023/03/07 02:40:11;;;;;;;;;23.25;19.00;;;;;6.55;57.07;100098.75;4957931;28;45379;-70
2023/03/07 02:42:41;;;;;;;;;26.50;19.50;;;;;6.58;57.16;100093.63;4942328;28;44823;-71
2023/03/07 02:45:13;;;;;;;;;21.50;20.25;;;;;6.59;56.61;100084.88;4953817;28;45335;-70
2023/03/07 02:47:40;;;;;;;;;24.00;18.00;;;;;6.47;57.40;100061.78;4951163;28;45315;-70
2023/03/07 02:50:06;;;;;;;;;20.75;20.00;;;;;6.57;57.48;100072.56;4952668;28;45458;-70
2023/03/07 02:52:31;;;;;;;;;28.75;24.00;;;;;6.59;56.99;100084.00;4941478;28;45895;-70
2023/03/07 02:54:57;;;;;;;;;26.75;24.75;;;;;6.58;57.41;100082.19;4955167;28;45336;-70
2023/03/07 02:57:23;;;;;;;;;27.75;21.50;;;;;6.51;57.56;100075.88;4954434;28;45225;-70
2023/03/07 02:59:48;;;;;;;;;28.00;20.75;;;;;6.53;57.73;100079.47;4953841;28;45273;-70
2023/03/07 03:02:13;;;;;;;;;24.25;20.75;;;;;6.45;56.95;100065.22;4962165;28;45190;-70
2023/03/07 03:04:38;;;;;;;;;31.25;22.00;;;;;6.54;57.46;100085.59;4959793;28;46281;-70
2023/03/07 03:07:04;;;;;;;;;31.75;22.00;;;;;6.53;57.78;100074.22;4961910;28;45323;-70
2023/03/07 03:09:30;;;;;;;;;17.00;16.75;;;;;6.50;57.77;100074.13;4953687;28;45389;-70
2023/03/07 03:11:55;;;;;;;;;26.75;18.75;;;;;6.52;57.77;100074.16;4960440;28;45236;-70
2023/03/07 03:14:21;;;;;;;;;24.75;21.00;;;;;6.47;58.80;100060.91;4950281;28;45234;-70
2023/03/07 03:16:46;;;;;;;;;21.50;16.50;;;;;6.49;58.09;100051.31;4961706;28;44760;-70
2023/03/07 03:19:11;;;;;;;;;25.50;19.50;;;;;6.41;57.13;100038.00;4961686;28;45224;-71
2023/03/07 03:21:37;;;;;;;;;23.75;16.00;;;;;6.55;58.21;100058.47;4961967;28;45464;-70
2023/03/07 03:24:07;;;;;;;;;22.75;18.50;;;;;6.56;58.00;100058.53;4959802;28;45474;-71
2023/03/07 03:26:33;;;;;;;;;23.25;20.50;;;;;6.46;58.93;100044.25;4959767;28;45335;-71
2023/03/07 03:28:59;;;;;;;;;20.25;20.00;;;;;6.53;58.07;100049.69;4960910;28;45176;-71
2023/03/07 03:31:24;;;;;;;;;20.00;19.00;;;;;6.54;58.38;100043.59;4961786;28;45477;-70
2023/03/07 03:33:51;;;;;;;;;25.25;18.75;;;;;6.51;57.80;100041.75;4951558;28;45314;-71
2023/03/07 03:36:16;;;;;;;;;17.25;17.25;;;;;6.58;57.85;100048.97;4961256;28;44765;-71
2023/03/07 03:38:42;;;;;;;;;29.25;22.00;;;;;6.50;57.87;100037.38;4933872;28;45252;-72
2023/03/07 03:41:12;;;;;;;;;23.50;18.25;;;;;6.60;58.46;100046.38;4960075;28;45358;-71
2023/03/07 03:43:37;;;;;;;;;24.00;19.00;;;;;6.54;57.73;100033.97;4950451;28;46867;-71
2023/03/07 03:46:03;;;;;;;;;14.25;14.00;;;;;6.61;58.42;100040.25;4935267;28;45093;-71
2023/03/07 03:48:29;;;;;;;;;20.25;17.25;;;;;6.60;57.82;100047.25;4951881;28;45149;-71
2023/03/07 03:51:05;;;;;;;;;22.50;18.00;;;;;6.59;58.03;100040.25;4959393;28;45511;-71
2023/03/07 03:53:33;;;;;;;;;23.75;16.25;;;;;6.59;57.29;100031.47;4948507;28;45181;-71
2023/03/07 03:56:24;;;;;;;;;16.25;16.25;;;;;6.60;57.65;100026.25;4956703;28;44848;-71
2023/03/07 03:58:54;;;;;;;;;20.75;19.25;;;;;6.60;58.06;100026.25;4949867;28;45245;-71
2023/03/07 04:01:21;;;;;;;;;21.25;19.00;;;;;6.58;57.83;100016.56;4956048;28;45352;-71
2023/03/07 04:03:49;;;;;;;;;22.50;18.00;;;;;6.59;58.26;100011.34;4954558;28;45344;-71
2023/03/07 04:06:17;;;;;;;;;29.25;23.25;;;;;6.63;58.52;100018.47;4958747;28;45390;-71
2023/03/07 04:08:43;;;;;;;;;28.50;24.25;;;;;6.65;57.52;100024.66;4954683;28;45315;-71
2023/03/07 04:11:09;;;;;;;;;24.00;21.50;;;;;6.65;58.36;100029.03;4958776;28;45405;-70
2023/03/07 04:13:35;;;;;;;;;19.00;15.50;;;;;6.56;58.24;100006.03;4953475;28;45249;-71
2023/03/07 04:16:01;;;;;;;;;24.50;20.00;;;;;6.59;58.16;100011.34;4957644;28;45343;-71
2023/03/07 04:18:27;;;;;;;;;21.75;17.00;;;;;6.41;58.03;99976.72;4943672;28;45300;-71
2023/03/07 04:20:53;;;;;;;;;20.75;17.00;;;;;6.60;58.42;100001.75;4956833;28;45481;-71
2023/03/07 04:23:20;;;;;;;;;20.25;14.25;;;;;6.60;57.76;100004.38;4952861;28;45225;-71
2023/03/07 04:25:47;;;;;;;;;14.50;13.75;;;;;6.59;57.57;100013.97;4955219;28;45166;-71
2023/03/07 04:28:12;;;;;;;;;23.00;18.25;;;;;6.61;58.44;100011.38;4951480;28;45451;-71
2023/03/07 04:30:38;;;;;;;;;21.25;17.50;;;;;6.60;58.36;100012.25;4953668;28;45240;-71
2023/03/07 04:33:03;;;;;;;;;17.50;16.50;;;;;6.60;58.20;100010.50;4939793;28;53111;-71
2023/03/07 04:35:28;;;;;;;;;20.00;15.25;;;;;6.63;58.29;100007.94;4941127;28;45280;-71
2023/03/07 04:37:54;;;;;;;;;21.50;18.75;;;;;6.57;58.17;99999.03;4952762;28;45383;-71
2023/03/07 04:40:19;;;;;;;;;24.50;20.00;;;;;6.56;58.10;99995.53;4954363;28;45278;-71
2023/03/07 04:42:44;;;;;;;;;20.25;15.25;;;;;6.58;58.47;100003.41;4951813;28;49002;-71
2023/03/07 04:45:10;;;;;;;;;26.50;22.50;;;;;6.56;58.40;99994.63;4936082;28;45502;-71
2023/03/07 04:47:35;;;;;;;;;25.00;21.75;;;;;6.57;58.84;99992.03;4943043;28;45454;-71
2023/03/07 04:50:00;;;;;;;;;17.25;17.00;;;;;6.52;59.16;99990.13;4949032;28;45316;-71
2023/03/07 04:52:26;;;;;;;;;18.50;18.50;;;;;6.43;58.25;99970.66;4951698;28;50972;-71
2023/03/07 04:54:51;;;;;;;;;18.25;17.50;;;;;6.49;58.61;99981.31;4951793;28;45428;-71
2023/03/07 04:57:16;;;;;;;;;24.50;19.25;;;;;6.54;58.81;99988.44;4951057;28;45437;-71
2023/03/07 04:59:42;;;;;;;;;22.75;17.50;;;;;6.54;58.68;99984.09;4951224;28;45292;-71
2023/03/07 05:02:10;;;;;;;;;20.75;20.75;;;;;6.48;59.04;99979.56;4963142;28;46635;-71
2023/03/07 05:04:36;;;;;;;;;23.50;16.75;;;;;6.54;58.42;99986.72;4938568;28;45244;-71
2023/03/07 05:07:01;;;;;;;;;26.50;18.75;;;;;6.53;58.39;99984.06;4959534;28;45370;-70
2023/03/07 05:09:27;;;;;;;;;20.25;18.50;;;;;6.54;58.37;99980.56;4953658;28;45205;-70
2023/03/07 05:11:52;;;;;;;;;22.25;17.00;;;;;6.47;58.46;99966.41;4958278;28;45485;-70
2023/03/07 05:14:17;;;;;;;;;16.50;10.25;;;;;6.44;58.01;99964.59;4951672;28;44769;-71
2023/03/07 05:16:42;;;;;;;;;21.00;19.25;;;;;6.54;58.88;99985.81;4955786;28;45399;-71
2023/03/07 05:19:08;;;;;;;;;18.25;15.75;;;;;6.46;58.42;99978.63;4954173;28;45530;-71
2023/03/07 05:21:34;;;;;;;;;19.75;17.25;;;;;6.39;57.96;99962.69;4953021;28;46708;-71
2023/03/07 05:23:59;;;;;;;;;18.50;17.75;;;;;6.48;57.73;99982.19;4945315;28;46132;-71
2023/03/07 05:26:25;;;;;;;;;19.25;14.00;;;;;6.43;58.27;99978.53;4945303;28;45379;-71
2023/03/07 05:28:50;;;;;;;;;12.50;12.50;;;;;6.46;57.62;99978.63;4957258;28;45670;-71
2023/03/07 05:31:15;;;;;;;;;25.00;19.00;;;;;6.38;58.41;99960.88;4951249;28;47497;-71
2023/03/07 05:33:41;;;;;;;;;21.50;17.75;;;;;6.47;58.61;99971.66;4939988;28;45327;-71
2023/03/07 05:36:07;;;;;;;;;21.50;20.50;;;;;6.44;58.96;99972.47;4938550;28;45400;-71
2023/03/07 05:38:33;;;;;;;;;25.00;19.25;;;;;6.41;58.53;99975.00;4948097;28;45445;-71
2023/03/07 05:40:58;;;;;;;;;22.50;20.50;;;;;6.33;58.88;99957.22;4956882;28;45219;-72
2023/03/07 05:43:23;;;;;;;;;19.25;18.75;;;;;6.34;58.32;99962.53;4950489;28;45188;-72
2023/03/07 05:45:48;;;;;;;;;19.50;17.25;;;;;6.37;58.40;99967.88;4958561;28;45449;-71
2023/03/07 05:48:14;;;;;;;;;25.25;17.50;;;;;6.23;58.70;99937.72;4949182;28;45167;-71
2023/03/07 05:50:40;;;;;;;;;20.75;18.00;;;;;6.23;57.92;99946.50;4956008;28;45455;-71
2023/03/07 05:53:06;;;;;;;;;28.00;21.00;;;;;6.21;58.33;99942.03;4950491;28;45366;-72
2023/03/07 05:55:31;;;;;;;;;14.75;14.75;;;;;6.31;59.21;99966.81;4949883;28;45420;-71
2023/03/07 05:57:56;;;;;;;;;16.00;15.50;;;;;6.18;58.65;99931.47;4946794;28;45240;-71
2023/03/07 06:00:22;;;;;;;;;20.00;17.00;;;;;6.17;59.25;99935.81;4951045;28;52287;-72
2023/03/07 06:02:47;;;;;;;;;20.50;19.75;;;;;6.22;59.49;99955.22;4957908;28;45394;-72
2023/03/07 06:05:13;;;;;;;;;24.00;19.50;;;;;6.21;58.46;99950.78;4954110;28;45422;-72
2023/03/07 06:07:38;;;;;;;;;21.00;18.50;;;;;6.17;59.17;99946.31;4958475;28;45460;-72
2023/03/07 06:10:04;;;;;;;;;21.75;16.75;;;;;6.22;58.31;99947.34;4954620;28;45506;-70
2023/03/07 06:12:29;;;;;;;;;23.75;18.00;;;;;6.22;58.96;99954.34;4956365;28;45457;-71
2023/03/07 06:14:55;;;;;;;;;22.75;17.50;;;;;6.20;58.97;99949.03;4956815;28;44733;-72
2023/03/07 06:17:21;;;;;;;;;19.00;18.25;;;;;6.15;59.81;99948.00;4935803;28;45748;-73
2023/03/07 06:19:46;;;;;;;;;22.50;16.75;;;;;6.21;58.80;99960.41;4951365;28;47942;-73
2023/03/07 06:22:12;;;;;;;;;18.25;14.25;;;;;6.18;59.25;99957.69;4959238;28;45508;-72
2023/03/07 06:24:37;;;;;;;;;18.25;18.25;;;;;6.16;60.33;99956.75;4955637;28;44779;-72
2023/03/07 06:27:02;;;;;;;;;20.75;17.00;;;;;6.16;59.70;99948.88;4955607;28;45338;-73
2023/03/07 06:29:28;;;;;;;;;24.25;19.50;;;;;6.10;60.05;99938.22;4962094;28;45333;-73
2023/03/07 06:31:53;;;;;;;;;21.75;19.50;;;;;6.15;59.67;99947.13;4955593;28;45398;-71
2023/03/07 06:34:18;;;;;;;;;26.00;18.00;;;;;6.17;59.79;99950.69;4952519;28;46912;-73
2023/03/07 06:36:44;;;;;;;;;23.25;17.50;;;;;6.19;60.47;99949.88;4945304;28;45917;-74
2023/03/07 06:39:09;;;;;;;;;24.00;15.75;;;;;6.21;59.42;99947.28;4945050;28;48740;-73
2023/03/07 06:41:34;;;;;;;;;23.50;19.75;;;;;6.10;59.60;99939.09;4952091;28;45251;-73
2023/03/07 06:44:00;;;;;;;;;25.00;19.25;;;;;6.17;59.09;99948.94;4956814;28;45261;-73
2023/03/07 06:46:25;;;;;;;;;22.75;17.75;;;;;6.16;59.49;99939.31;4962163;28;45364;-74
2023/03/07 06:48:51;;;;;;;;;17.50;16.50;;;;;6.20;59.07;99951.66;4962281;28;45232;-74
2023/03/07 06:51:16;;;;;;;;;16.00;15.50;;;;;6.16;59.44;99944.56;4961988;28;45280;-74
2023/03/07 06:53:42;;;;;;;;;21.25;17.75;;;;;6.21;59.22;99956.03;4962188;28;45288;-74
2023/03/07 06:56:07;;;;;;;;;21.00;18.75;;;;;6.18;59.61;99947.22;4961611;28;45541;-74
2023/03/07 06:58:32;;;;;;;;;21.50;18.00;;;;;6.21;59.88;99958.66;4961784;28;45373;-75
2023/03/07 07:00:58;;;;;;;;;19.25;14.75;;;;;6.18;58.76;99947.22;4935276;28;45349;-75
2023/03/07 07:03:25;;;;;;;;;19.25;18.00;;;;;6.04;59.98;99921.47;4958930;28;45351;-75
2023/03/07 07:05:50;;;;;;;;;23.25;18.50;;;;;6.23;58.95;99962.22;4940259;28;45335;-75
2023/03/07 07:08:16;;;;;;;;;24.25;18.50;;;;;6.24;60.17;99958.75;4950437;28;45488;-74
2023/03/07 07:10:41;;;;;;;;;20.25;13.75;;;;;6.25;59.93;99959.66;4942013;28;45442;-74
2023/03/07 07:13:07;;;;;;;;;22.75;16.75;;;;;6.23;59.21;99946.50;4922139;28;45470;-76
2023/03/07 07:15:32;;;;;;;;;24.50;22.25;;;;;6.17;59.56;99938.44;4935507;28;45313;-76
2023/03/07 07:17:58;;;;;;;;;18.50;13.00;;;;;6.27;59.75;99958.88;4944739;28;45256;-75
2023/03/07 07:20:23;;;;;;;;;18.75;17.50;;;;;6.26;58.76;99948.31;4949973;28;45312;-75
2023/03/07 07:22:49;;;;;;;;;23.25;18.00;;;;;6.33;59.07;99966.03;4933313;28;45238;-75
2023/03/07 07:25:14;;;;;;;;;16.25;14.50;;;;;6.27;59.52;99950.06;4928907;28;45467;-76
2023/03/07 07:27:40;;;;;;;;;19.75;17.75;;;;;6.32;59.42;99958.09;4933651;28;45411;-75
2023/03/07 07:30:06;;;;;;;;;22.50;19.25;;;;;6.35;59.93;99959.06;4911667;28;45394;-75
2023/03/07 07:32:32;;;;;;;;;25.75;18.50;;;;;6.35;59.49;99959.06;4929046;28;45226;-75
2023/03/07 07:34:57;;;;;;;;;21.00;18.50;;;;;6.38;59.08;99966.13;4916590;28;46980;-76
2023/03/07 07:37:23;;;;;;;;;17.00;14.25;;;;;6.32;59.84;99942.34;4955324;28;46230;-76
2023/03/07 07:39:51;;;;;;;;;18.50;18.50;;;;;6.34;59.52;99944.16;4944729;28;45363;-75
2023/03/07 07:42:16;;;;;;;;;19.50;18.00;;;;;6.38;58.81;99938.13;4946292;28;45398;-75
2023/03/07 07:44:42;;;;;;;;;27.75;19.00;;;;;6.40;59.32;99939.06;4941851;28;45562;-75
2023/03/07 07:47:08;;;;;;;;;18.75;13.25;;;;;6.51;59.12;99949.88;4942601;28;46260;-75
2023/03/07 07:49:34;;;;;;;;;20.25;17.50;;;;;6.54;59.76;99954.31;4952363;28;45308;-74
2023/03/07 07:51:59;;;;;;;;;20.00;18.25;;;;;6.56;59.43;99958.75;4918219;28;45340;-73
2023/03/07 07:54:25;;;;;;;;;43.50;31.50;;;;;6.58;59.23;99962.31;4913448;28;45631;-73
2023/03/07 07:56:50;;;;;;;;;14.25;10.00;;;;;6.57;59.30;99954.41;4945284;28;45363;-74
2023/03/07 07:59:15;;;;;;;;;18.75;18.25;;;;;6.56;59.06;99942.13;4950272;28;45329;-74
2023/03/07 08:01:41;;;;;;;;;21.00;16.25;;;;;6.64;58.88;99959.88;4950208;28;44780;-73
2023/03/07 08:04:06;;;;;;;;;18.50;17.00;;;;;6.56;58.72;99945.63;4951440;28;45459;-74
2023/03/07 08:06:32;;;;;;;;;16.25;13.75;;;;;6.57;59.30;99951.78;4946684;28;45261;-74
2023/03/07 08:08:58;;;;;;;;;29.50;20.00;;;;;6.68;58.50;99980.09;4935498;28;45348;-74
2023/03/07 08:11:25;;;;;;;;;22.75;18.50;;;;;6.70;58.72;99973.16;4935594;28;45351;-75
2023/03/07 08:13:50;;;;;;;;;16.00;9.75;;;;;6.67;59.29;99959.06;4951080;28;45360;-73
2023/03/07 08:16:19;;;;;;;;;18.00;15.25;;;;;6.73;58.75;99980.22;4935979;28;45838;-73
2023/03/07 08:18:49;;;;;;;;;25.50;19.25;;;;;6.75;59.22;99975.00;4947450;28;45310;-73
2023/03/07 08:21:14;;;;;;;;;24.75;19.75;;;;;6.78;59.30;99969.81;4935830;28;45449;-73
2023/03/07 08:23:40;;;;;;;;;24.00;19.75;;;;;6.77;58.75;99966.31;4947503;28;45409;-73
2023/03/07 08:26:07;;;;;;;;;18.25;17.25;;;;;6.70;58.84;99951.25;4935610;28;46348;-73
2023/03/07 08:28:33;;;;;;;;;13.25;13.00;;;;;6.75;58.16;99961.84;4947716;28;44650;-73
2023/03/07 08:31:23;;;;;;;;;20.75;18.75;;;;;6.76;58.85;99963.66;4929288;28;44899;-73
2023/03/07 08:33:49;;;;;;;;;20.25;13.75;;;;;6.78;58.77;99961.94;4934550;28;45296;-73
2023/03/07 08:36:15;;;;;;;;;18.25;14.50;;;;;6.80;58.88;99949.75;4933972;28;45333;-73
2023/03/07 08:38:40;;;;;;;;;20.00;13.25;;;;;6.84;58.31;99960.38;4937766;28;45361;-73
2023/03/07 08:41:07;;;;;;;;;18.75;16.00;;;;;6.88;58.87;99964.84;4923469;28;45494;-73
2023/03/07 08:43:35;;;;;;;;;16.25;14.00;;;;;6.92;58.15;99960.56;4932253;28;44843;-73
2023/03/07 08:46:01;;;;;;;;;15.50;13.25;;;;;6.91;58.75;99964.03;4934243;28;46395;-73
2023/03/07 08:48:27;;;;;;;;;21.00;20.00;;;;;6.97;58.17;99964.19;4930741;28;45244;-73
2023/03/07 08:50:53;;;;;;;;;21.50;19.50;;;;;7.04;58.35;99960.88;4916955;28;45223;-73
2023/03/07 08:53:19;;;;;;;;;13.00;13.00;;;;;7.06;58.42;99958.31;4937408;28;45462;-73
2023/03/07 08:55:44;;;;;;;;;19.50;12.25;;;;;7.17;58.46;99965.59;4935590;28;46093;-73
2023/03/07 08:58:10;;;;;;;;;19.75;15.75;;;;;7.13;57.88;99961.09;4938865;28;45364;-73
2023/03/07 09:00:38;;;;;;;;;21.75;15.00;;;;;7.20;57.92;99948.09;4935773;28;45435;-73
2023/03/07 09:03:04;;;;;;;;;18.25;13.50;;;;;7.30;57.93;99960.63;4946412;28;45483;-73
2023/03/07 09:05:30;;;;;;;;;14.50;13.50;;;;;7.34;58.20;99967.75;4940435;28;45273;-73
2023/03/07 09:07:56;;;;;;;;;15.00;13.50;;;;;7.42;57.93;99965.28;4946264;28;45185;-73
2023/03/07 09:10:21;;;;;;;;;16.75;13.75;;;;;7.45;58.17;99963.63;4920604;28;45254;-73
2023/03/07 09:12:50;;;;;;;;;15.75;13.25;;;;;7.29;57.19;99924.69;4949284;28;44802;-73
2023/03/07 09:15:15;;;;;;;;;15.00;11.50;;;;;7.46;57.26;99954.88;4949243;28;45591;-73
2023/03/07 09:17:41;;;;;;;;;9.50;9.50;;;;;7.54;57.46;99961.19;4941690;28;45472;-73
2023/03/07 09:20:07;;;;;;;;;13.50;12.50;;;;;7.59;57.79;99956.06;4942776;28;45396;-73
2023/03/07 09:22:32;;;;;;;;;14.50;13.75;;;;;7.50;57.46;99938.28;4943474;28;45538;-73
2023/03/07 09:24:58;;;;;;;;;16.00;14.50;;;;;7.61;57.23;99944.69;4944686;28;49318;-73
2023/03/07 09:27:23;;;;;;;;;17.50;14.00;;;;;7.73;57.18;99937.91;4947703;28;45242;-73
2023/03/07 09:29:49;;;;;;;;;15.00;11.25;;;;;7.84;56.61;99932.06;4944060;28;45372;-73
2023/03/07 09:32:14;;;;;;;;;17.50;12.75;;;;;8.01;56.58;99947.28;4934860;28;45296;-73
2023/03/07 09:34:39;;;;;;;;;19.75;14.50;;;;;8.07;56.58;99950.06;4942050;28;45759;-73
2023/03/07 09:37:05;;;;;;;;;16.00;13.75;;;;;8.07;56.81;99937.78;4928803;28;45675;-73
2023/03/07 09:39:31;;;;;;;;;21.25;13.50;;;;;8.12;55.32;99929.97;4942560;28;45683;-74
2023/03/07 09:42:23;;;;;;;;;15.75;10.75;;;;;8.32;56.41;99954.09;4941987;28;45272;-73
2023/03/07 09:45:19;;;;;;;;;15.00;13.50;;;;;8.40;56.74;99942.00;4930613;28;45428;-73
2023/03/07 09:47:57;;;;;;;;;15.75;15.75;;;;;8.50;55.28;99932.50;4926287;28;45269;-73
2023/03/07 09:50:39;;;;;;;;;17.00;15.00;;;;;8.52;55.85;99921.16;4929072;28;45196;-73
2023/03/07 09:53:05;;;;;;;;;14.25;11.50;;;;;8.64;55.14;99928.38;4929862;28;45237;-73
2023/03/07 09:55:31;;;;;;;;;16.75;14.75;;;;;8.74;54.97;99926.81;4929056;28;45165;-73
2023/03/07 09:58:01;;;;;;;;;15.75;13.00;;;;;8.82;55.37;99926.91;4952018;28;45395;-73
2023/03/07 10:00:36;;;;;;;;;16.25;12.75;;;;;8.85;54.50;99927.88;4934404;28;45386;-73
2023/03/07 10:03:44;;;;;;;;;14.75;12.25;;;;;8.90;55.37;99920.91;4936800;28;47315;-73
2023/03/07 10:06:16;;;;;;;;;20.25;14.50;;;;;9.00;54.14;99908.78;4930249;28;45257;-73
2023/03/07 10:08:42;;;;;;;;;17.25;15.00;;;;;9.11;54.13;99908.97;4927927;28;46197;-73
2023/03/07 10:11:07;;;;;;;;;18.25;13.50;;;;;9.16;53.04;99912.56;4940225;28;45324;-73
2023/03/07 10:13:47;;;;;;;;;16.75;14.75;;;;;9.29;53.98;99906.59;4937782;28;45224;-73
2023/03/07 10:16:40;;;;;;;;;20.00;15.50;;;;;9.42;54.07;99902.41;4913526;28;45775;-73
2023/03/07 10:19:16;;;;;;;;;29.00;23.00;;;;;9.50;52.63;99894.59;4956460;28;45240;-73
2023/03/07 10:22:09;;;;;;;;;14.50;12.25;;;;;9.63;54.17;99902.72;4916729;28;45237;-73
2023/03/07 10:25:14;;;;;;;;;17.00;12.50;;;;;9.58;53.06;99896.47;4939468;28;46006;-73
2023/03/07 10:27:39;;;;;;;;;13.50;13.25;;;;;9.52;51.32;99874.38;4924015;28;46496;-73
2023/03/07 10:30:16;;;;;;;;;17.75;15.50;;;;;9.57;53.61;99875.34;4931809;28;45440;-73
2023/03/07 10:32:48;;;;;;;;;13.50;11.25;;;;;9.64;52.53;99886.00;4932200;28;45304;-73
2023/03/07 10:35:20;;;;;;;;;15.75;11.75;;;;;9.63;52.93;99878.06;4941996;28;45270;-73
2023/03/07 10:38:17;;;;;;;;;17.00;16.25;;;;;9.67;53.01;99887.81;4924038;28;47225;-73
2023/03/07 10:40:49;;;;;;;;;19.00;12.25;;;;;9.64;52.97;99871.94;4938740;28;45439;-73
2023/03/07 10:43:28;;;;;;;;;12.00;12.00;;;;;9.70;52.67;99889.59;4939144;28;45416;-72
2023/03/07 10:46:22;;;;;;;;;11.25;10.50;;;;;9.67;52.15;99887.81;4918633;28;45393;-73
2023/03/07 10:49:05;;;;;;;;;11.50;11.00;;;;;9.71;52.94;99884.31;4940919;28;45270;-74
2023/03/07 10:51:43;;;;;;;;;14.75;11.75;;;;;9.74;51.23;99880.84;4941108;28;45384;-72
2023/03/07 10:54:15;;;;;;;;;11.50;10.50;;;;;9.73;50.71;99879.06;4942484;28;45249;-73
2023/03/07 10:57:01;;;;;;;;;20.50;16.75;;;;;9.69;51.42;99851.78;4943413;28;46834;-74
2023/03/07 10:59:26;;;;;;;;;7.50;6.75;;;;;9.97;51.55;99876.75;4936357;28;45446;-73
2023/03/07 11:01:57;;;;;;;;;15.75;15.50;;;;;10.03;51.43;99870.66;4952438;28;45427;-74
2023/03/07 11:04:26;;;;;;;;;13.25;13.25;;;;;10.04;50.47;99856.56;4954222;28;44789;-74
2023/03/07 11:07:01;;;;;;;;;11.50;11.00;;;;;10.28;50.61;99866.56;4941961;28;45295;-74
2023/03/07 11:09:33;;;;;;;;;12.00;12.00;;;;;10.42;49.68;99866.66;4937770;28;45509;-74
2023/03/07 11:12:09;;;;;;;;;13.50;12.00;;;;;10.54;49.66;99866.81;4940207;28;45511;-74
2023/03/07 11:15:07;;;;;;;;;16.75;11.00;;;;;10.71;50.11;99865.19;4928655;28;45309;-74
2023/03/07 11:17:47;;;;;;;;;10.75;7.25;;;;;10.87;49.13;99866.22;4935507;28;45344;-74
2023/03/07 11:20:48;;;;;;;;;11.50;10.00;;;;;10.97;49.31;99869.81;4911126;28;47064;-74
2023/03/07 11:23:22;;;;;;;;;14.00;12.25;;;;;11.02;49.03;99868.09;4929909;28;45304;-73
2023/03/07 11:25:49;;;;;;;;;14.50;11.00;;;;;11.06;46.86;99861.97;4930806;28;45450;-73
2023/03/07 11:28:28;;;;;;;;;15.00;12.25;;;;;11.24;48.84;99877.06;4930331;28;45293;-74